Time;durP1;ratioP1;P1;durP2;ratioP2;P2;SDS_P1;SDS_P2;PMS_P1;PMS_P2;Temp;Humidity;BMP_temperature;BMP_pressure;BME280_temperature;BME280_humidity;BME280_pressure;Samples;Min_cycle;Max_cycle;Signal;HPM_P1;HPM_P2
2021/07/20 00:00:19;;;;;;;17.20;11.30;;;25.40;76.00;;;;;;5019722;28;20054;-36
2021/07/20 00:02:47;;;;;;;20.35;11.13;;;25.40;75.90;;;;;;5019944;28;20337;-36
2021/07/20 00:05:16;;;;;;;17.17;11.13;;;25.40;76.10;;;;;;5019395;28;20042;-36
2021/07/20 00:07:42;;;;;;;20.50;11.98;;;25.40;76.00;;;;;;5020217;28;20036;-37
2021/07/20 00:10:13;;;;;;;20.40;11.60;;;25.40;75.90;;;;;;5019614;28;20061;-36
2021/07/20 00:12:40;;;;;;;16.95;10.32;;;25.40;75.70;;;;;;5019904;28;20410;-35
2021/07/20 00:15:08;;;;;;;17.60;10.82;;;25.40;75.60;;;;;;5019609;28;20365;-37
2021/07/20 00:17:35;;;;;;;16.88;9.85;;;25.40;75.40;;;;;;5019676;28;20033;-36
2021/07/20 00:20:03;;;;;;;15.57;9.63;;;25.30;75.40;;;;;;5019357;28;20065;-36
2021/07/20 00:22:29;;;;;;;14.43;9.90;;;25.30;75.60;;;;;;5019971;28;20354;-37
2021/07/20 00:24:54;;;;;;;19.40;10.85;;;25.30;75.30;;;;;;5019059;28;20029;-36
2021/07/20 00:27:20;;;;;;;14.77;10.30;;;25.30;75.30;;;;;;5019507;28;20022;-35
2021/07/20 00:29:46;;;;;;;16.40;10.23;;;25.30;75.20;;;;;;5019190;28;20111;-36
2021/07/20 00:32:11;;;;;;;14.00;9.63;;;25.30;75.20;;;;;;5019296;28;20029;-36
2021/07/20 00:34:38;;;;;;;21.42;10.75;;;25.30;75.30;;;;;;5018810;28;20054;-36
2021/07/20 00:37:05;;;;;;;17.58;9.25;;;25.20;75.10;;;;;;5019253;28;20052;-36
2021/07/20 00:39:31;;;;;;;14.07;9.32;;;25.20;75.10;;;;;;5019159;28;20303;-35
2021/07/20 00:41:56;;;;;;;17.08;9.85;;;25.20;75.00;;;;;;5019081;28;20029;-35
2021/07/20 00:44:22;;;;;;;16.58;10.15;;;25.20;75.00;;;;;;5019197;28;20057;-37
2021/07/20 00:46:47;;;;;;;15.75;10.10;;;25.20;75.00;;;;;;5019044;28;20021;-36
2021/07/20 00:49:13;;;;;;;18.38;10.43;;;25.20;75.00;;;;;;5019241;28;20041;-37
2021/07/20 00:51:39;;;;;;;16.48;10.15;;;25.20;75.10;;;;;;5019446;28;20410;-36
2021/07/20 00:54:04;;;;;;;21.20;10.52;;;25.20;75.10;;;;;;5018915;28;20386;-36
2021/07/20 00:56:32;;;;;;;18.65;10.13;;;25.20;74.90;;;;;;5018909;28;20032;-36
2021/07/20 00:58:58;;;;;;;17.35;9.98;;;25.10;74.80;;;;;;5018933;28;20037;-36
2021/07/20 01:01:24;;;;;;;18.98;10.27;;;25.10;74.80;;;;;;5018961;28;20030;-37
2021/07/20 01:03:51;;;;;;;15.75;9.23;;;25.20;75.10;;;;;;5018669;28;20096;-37
2021/07/20 01:06:20;;;;;;;17.50;9.48;;;25.10;75.20;;;;;;5018928;28;20346;-37
2021/07/20 01:08:47;;;;;;;13.32;8.82;;;25.20;75.20;;;;;;5017863;28;20395;-37
2021/07/20 01:11:14;;;;;;;17.27;9.90;;;25.10;75.00;;;;;;5018828;28;20030;-36
2021/07/20 01:13:40;;;;;;;13.63;8.95;;;25.10;75.00;;;;;;5018752;28;20068;-37
2021/07/20 01:16:07;;;;;;;13.80;10.05;;;25.10;75.10;;;;;;5018722;28;20052;-36
2021/07/20 01:18:37;;;;;;;17.10;9.00;;;25.10;74.90;;;;;;5018256;28;20038;-36
2021/07/20 01:21:03;;;;;;;13.77;8.93;;;25.10;74.90;;;;;;5018393;28;20025;-36
2021/07/20 01:23:36;;;;;;;14.95;9.05;;;25.10;74.70;;;;;;5018352;28;20403;-35
2021/07/20 01:26:02;;;;;;;16.08;8.40;;;25.10;74.70;;;;;;5018557;28;20022;-36
2021/07/20 01:28:29;;;;;;;15.85;9.60;;;25.10;74.70;;;;;;5018365;28;20299;-37
2021/07/20 01:30:59;;;;;;;16.83;8.48;;;25.10;74.40;;;;;;5018766;28;20125;-37
2021/07/20 01:33:28;;;;;;;13.50;8.77;;;25.10;74.40;;;;;;5018171;28;20046;-36
2021/07/20 01:35:55;;;;;;;17.42;10.15;;;25.10;74.30;;;;;;5018526;28;20025;-37
2021/07/20 01:38:23;;;;;;;16.25;8.73;;;25.10;74.30;;;;;;5018085;28;20038;-36
2021/07/20 01:40:50;;;;;;;14.57;9.32;;;25.10;74.30;;;;;;5018127;28;20029;-37
2021/07/20 01:43:20;;;;;;;13.60;9.00;;;25.10;74.20;;;;;;5018110;28;20032;-36
2021/07/20 01:45:47;;;;;;;17.80;9.05;;;25.10;74.10;;;;;;5018224;28;20026;-36
2021/07/20 01:48:13;;;;;;;14.77;9.00;;;25.10;74.40;;;;;;5018196;28;20049;-37
2021/07/20 01:50:39;;;;;;;13.27;8.27;;;25.10;74.20;;;;;;5017881;28;20022;-36
2021/07/20 01:53:06;;;;;;;16.10;9.07;;;25.00;74.20;;;;;;5017911;28;20438;-35
2021/07/20 01:55:32;;;;;;;13.90;9.05;;;25.00;74.40;;;;;;5018286;28;20030;-36
2021/07/20 01:57:58;;;;;;;17.83;8.98;;;25.00;74.40;;;;;;5018089;28;20106;-36
2021/07/20 02:00:24;;;;;;;17.67;8.80;;;25.00;74.50;;;;;;5017444;28;20040;-37
2021/07/20 02:08:29;;;;;;;13.85;8.45;;;25.00;74.70;;;;;;5017961;28;20060;-36
2021/07/20 02:11:00;;;;;;;13.23;8.98;;;25.00;74.80;;;;;;5017772;28;20022;-36
2021/07/20 02:13:27;;;;;;;15.25;9.75;;;24.90;75.00;;;;;;5017429;28;20030;-37
2021/07/20 02:15:54;;;;;;;13.23;8.57;;;24.90;75.10;;;;;;5017522;28;20018;-36
2021/07/20 02:18:25;;;;;;;12.48;9.07;;;24.90;75.20;;;;;;5017123;28;20406;-35
2021/07/20 02:20:52;;;;;;;14.70;8.98;;;24.90;75.30;;;;;;5017551;28;20030;-36
2021/07/20 02:23:19;;;;;;;14.55;9.00;;;24.90;75.30;;;;;;5017308;28;20061;-36
2021/07/20 02:25:46;;;;;;;10.77;8.32;;;24.90;75.30;;;;;;5017532;28;20107;-37
2021/07/20 02:28:14;;;;;;;12.38;8.98;;;24.80;75.30;;;;;;5017275;28;20034;-36
2021/07/20 02:30:41;;;;;;;15.88;9.20;;;24.80;75.30;;;;;;5017456;28;20134;-37
2021/07/20 02:33:08;;;;;;;15.02;8.57;;;24.80;75.40;;;;;;5016924;28;20040;-37
2021/07/20 02:35:34;;;;;;;16.25;9.07;;;24.80;75.30;;;;;;5017235;28;20033;-36
2021/07/20 02:38:01;;;;;;;17.63;8.90;;;24.80;75.50;;;;;;5017157;28;20300;-37
2021/07/20 02:40:28;;;;;;;17.30;10.23;;;24.80;75.50;;;;;;5016589;28;20485;-37
2021/07/20 02:42:56;;;;;;;12.75;9.15;;;24.80;75.50;;;;;;5017006;28;20030;-37
2021/07/20 02:45:22;;;;;;;13.27;8.43;;;24.80;75.50;;;;;;5016500;28;20080;-36
2021/07/20 02:47:49;;;;;;;14.55;8.23;;;24.80;75.50;;;;;;5017049;28;20038;-36
2021/07/20 02:50:19;;;;;;;15.70;8.73;;;24.80;75.40;;;;;;5016615;28;20026;-36
2021/07/20 02:52:47;;;;;;;10.38;7.30;;;24.80;75.30;;;;;;5016818;28;20197;-36
2021/07/20 02:55:16;;;;;;;15.00;9.27;;;24.80;75.30;;;;;;5016440;28;20068;-35
2021/07/20 02:57:44;;;;;;;16.25;9.52;;;24.80;75.90;;;;;;5016971;28;20034;-36
2021/07/20 03:00:11;;;;;;;16.10;8.98;;;24.80;75.50;;;;;;5016231;28;20029;-36
2021/07/20 03:02:44;;;;;;;12.45;9.07;;;24.80;75.50;;;;;;5016871;28;20030;-36
2021/07/20 03:05:11;;;;;;;13.73;8.65;;;24.80;75.50;;;;;;5015072;28;20108;-38
2021/07/20 03:07:39;;;;;;;12.63;8.80;;;24.80;75.50;;;;;;5016105;28;20489;-36
2021/07/20 03:10:06;;;;;;;17.90;9.95;;;24.80;75.50;;;;;;5015596;28;20388;-37
2021/07/20 03:12:33;;;;;;;13.70;8.90;;;24.80;75.60;;;;;;5016795;28;20048;-37
2021/07/20 03:14:59;;;;;;;14.23;8.85;;;24.80;75.70;;;;;;5016128;28;20026;-37
2021/07/20 03:17:27;;;;;;;10.90;8.10;;;24.80;75.70;;;;;;5016526;28;20307;-37
2021/07/20 03:19:55;;;;;;;12.77;8.07;;;24.80;75.80;;;;;;5016317;28;20026;-36
2021/07/20 03:22:30;;;;;;;12.50;8.63;;;24.90;75.50;;;;;;5016182;28;20030;-36
2021/07/20 03:25:00;;;;;;;12.98;8.25;;;24.90;75.10;;;;;;5015868;28;20028;-36
2021/07/20 03:27:31;;;;;;;12.50;7.70;;;24.90;75.00;;;;;;5016216;28;20033;-36
2021/07/20 03:29:57;;;;;;;14.70;8.50;;;24.90;74.80;;;;;;5015366;28;20033;-37
2021/07/20 03:32:25;;;;;;;10.85;7.45;;;24.90;74.70;;;;;;5016123;28;20144;-36
2021/07/20 03:34:51;;;;;;;12.80;7.88;;;24.90;74.50;;;;;;5014682;28;20084;-36
2021/07/20 03:37:18;;;;;;;14.25;7.90;;;25.00;74.50;;;;;;5015982;28;20022;-37
2021/07/20 03:39:45;;;;;;;15.38;8.88;;;25.00;74.70;;;;;;5015931;28;20144;-37
2021/07/20 03:42:12;;;;;;;13.48;8.35;;;25.00;74.20;;;;;;5015641;28;20038;-37
2021/07/20 03:44:39;;;;;;;11.90;7.82;;;25.00;74.00;;;;;;5014419;28;20033;-36
2021/07/20 03:47:07;;;;;;;12.23;7.80;;;25.00;74.10;;;;;;5015862;28;20101;-36
2021/07/20 03:49:34;;;;;;;12.57;8.18;;;25.00;73.80;;;;;;5015906;28;20033;-36
2021/07/20 03:52:02;;;;;;;11.07;7.30;;;25.10;73.80;;;;;;5015753;28;20030;-36
2021/07/20 03:54:30;;;;;;;14.73;8.23;;;25.10;73.30;;;;;;5014737;28;20334;-36
2021/07/20 03:56:58;;;;;;;11.27;7.10;;;25.10;73.30;;;;;;5015857;28;20156;-37
2021/07/20 03:59:25;;;;;;;9.95;7.65;;;25.10;73.20;;;;;;5015867;28;20334;-36
2021/07/20 04:01:52;;;;;;;11.90;7.43;;;25.10;73.30;;;;;;5015716;28;20030;-37
2021/07/20 04:04:21;;;;;;;14.80;7.25;;;25.20;73.20;;;;;;5015186;28;20176;-36
2021/07/20 04:06:48;;;;;;;12.05;7.47;;;25.20;72.90;;;;;;5015732;28;20018;-36
2021/07/20 04:09:15;;;;;;;13.02;7.57;;;25.20;72.80;;;;;;5015682;28;20044;-36
2021/07/20 04:11:42;;;;;;;14.85;7.88;;;25.20;72.70;;;;;;5015949;28;20350;-36
2021/07/20 04:14:11;;;;;;;12.65;7.43;;;25.30;72.80;;;;;;5015701;28;20057;-37
2021/07/20 04:16:37;;;;;;;10.80;7.32;;;25.30;72.30;;;;;;5015905;28;20021;-37
2021/07/20 04:19:03;;;;;;;11.52;6.93;;;25.30;72.20;;;;;;5015305;28;20417;-36
2021/07/20 04:21:29;;;;;;;12.90;6.93;;;25.30;72.00;;;;;;5015645;28;20049;-36
2021/07/20 04:23:55;;;;;;;12.77;6.85;;;25.40;71.80;;;;;;5015595;28;20030;-36
2021/07/20 04:26:22;;;;;;;13.10;7.53;;;25.40;71.50;;;;;;5015386;28;20026;-36
2021/07/20 04:28:48;;;;;;;9.45;6.95;;;25.40;71.20;;;;;;5015395;28;20366;-37
2021/07/20 04:31:20;;;;;;;15.65;6.85;;;25.40;71.20;;;;;;5015190;28;20022;-37
2021/07/20 04:33:48;;;;;;;11.38;6.43;;;25.40;71.00;;;;;;5015016;28;20136;-36
2021/07/20 04:36:14;;;;;;;12.77;7.95;;;25.40;71.50;;;;;;5015179;28;20037;-36
2021/07/20 04:38:41;;;;;;;12.02;7.30;;;25.50;71.50;;;;;;5015295;28;20045;-37
2021/07/20 04:41:07;;;;;;;12.57;7.38;;;25.50;71.40;;;;;;5015650;28;20418;-36
2021/07/20 04:43:33;;;;;;;14.23;7.15;;;25.60;71.20;;;;;;5017925;28;20083;-36
2021/07/20 04:46:00;;;;;;;19.60;7.75;;;25.60;71.10;;;;;;5019077;28;20080;-37
2021/07/20 04:48:26;;;;;;;10.75;7.05;;;25.60;71.10;;;;;;5018867;28;20124;-36
2021/07/20 04:50:54;;;;;;;18.73;6.90;;;25.70;71.10;;;;;;5018746;28;20471;-37
2021/07/20 04:53:21;;;;;;;12.32;6.78;;;25.70;71.20;;;;;;5017627;28;20038;-36
2021/07/20 04:55:50;;;;;;;12.70;7.80;;;25.70;71.00;;;;;;5018882;28;20030;-36
2021/07/20 04:58:16;;;;;;;11.63;7.72;;;25.80;70.70;;;;;;5018702;28;20029;-37
2021/07/20 05:00:44;;;;;;;12.63;7.47;;;25.80;70.80;;;;;;5018422;28;20033;-36
2021/07/20 05:03:12;;;;;;;15.52;8.07;;;25.90;70.30;;;;;;5018744;28;20354;-37
2021/07/20 05:05:40;;;;;;;12.32;7.53;;;25.90;70.50;;;;;;5018060;28;20366;-36
2021/07/20 05:08:14;;;;;;;13.15;7.53;;;25.90;70.40;;;;;;5018810;28;20406;-37
2021/07/20 05:10:43;;;;;;;13.10;7.72;;;25.90;70.30;;;;;;5018665;28;20030;-37
2021/07/20 05:13:09;;;;;;;9.57;7.32;;;25.90;69.90;;;;;;5018264;28;20030;-36
2021/07/20 05:15:35;;;;;;;12.65;7.22;;;26.00;70.00;;;;;;5018124;28;20113;-37
2021/07/20 05:18:02;;;;;;;11.80;7.03;;;26.00;70.10;;;;;;5018314;28;20040;-37
2021/07/20 05:20:29;;;;;;;12.13;7.65;;;26.10;69.90;;;;;;5017922;28;20054;-37
2021/07/20 05:22:56;;;;;;;16.40;11.75;;;26.10;69.50;;;;;;5018438;28;20030;-37
2021/07/20 05:25:22;;;;;;;13.82;8.18;;;26.10;69.60;;;;;;5018110;28;20088;-37
2021/07/20 05:27:53;;;;;;;10.63;7.60;;;26.20;69.40;;;;;;5018278;28;20025;-37
2021/07/20 05:30:18;;;;;;;11.15;7.20;;;26.30;69.60;;;;;;5017461;28;20037;-36
2021/07/20 05:32:46;;;;;;;20.08;8.38;;;26.30;70.20;;;;;;5018010;28;20322;-37
2021/07/20 05:35:19;;;;;;;11.07;7.30;;;26.30;68.70;;;;;;5017423;28;20058;-36
2021/07/20 05:37:48;;;;;;;13.48;7.50;;;26.30;68.50;;;;;;5017772;28;20038;-37
2021/07/20 05:40:18;;;;;;;9.77;6.93;;;26.40;68.70;;;;;;5017290;28;20322;-36
2021/07/20 05:42:47;;;;;;;14.70;7.47;;;26.40;67.70;;;;;;5018054;28;20030;-36
2021/07/20 05:45:14;;;;;;;10.57;7.00;;;26.40;68.20;;;;;;5017326;28;20022;-37
2021/07/20 05:47:49;;;;;;;13.02;8.07;;;26.40;68.10;;;;;;5017977;28;20041;-36
2021/07/20 05:50:16;;;;;;;21.23;8.15;;;26.50;68.30;;;;;;5017576;28;20036;-37
2021/07/20 05:52:45;;;;;;;11.60;8.15;;;26.50;67.90;;;;;;5017618;28;20044;-36
2021/07/20 05:55:12;;;;;;;14.02;7.13;;;26.50;67.80;;;;;;5017207;28;20087;-36
2021/07/20 05:57:47;;;;;;;12.25;8.27;;;26.60;67.90;;;;;;5017596;28;20042;-37
2021/07/20 06:00:15;;;;;;;12.30;8.02;;;26.60;68.00;;;;;;5017193;28;20104;-36
2021/07/20 06:02:42;;;;;;;15.38;8.52;;;26.60;67.70;;;;;;5017656;28;20040;-36
2021/07/20 06:05:12;;;;;;;11.13;7.60;;;26.60;68.10;;;;;;5016666;28;20036;-36
2021/07/20 06:07:38;;;;;;;15.65;8.77;;;26.60;68.10;;;;;;5017705;28;20121;-36
2021/07/20 06:10:05;;;;;;;15.55;7.97;;;26.60;68.00;;;;;;5016921;28;20029;-36
2021/07/20 06:12:31;;;;;;;12.82;7.80;;;26.70;67.30;;;;;;5017302;28;20034;-37
2021/07/20 06:14:58;;;;;;;11.02;7.15;;;26.70;67.40;;;;;;5016919;28;20064;-37
2021/07/20 06:17:24;;;;;;;12.75;8.07;;;26.70;67.50;;;;;;5016998;28;20042;-37
2021/07/20 06:19:55;;;;;;;13.52;8.15;;;26.80;67.00;;;;;;5016666;28;20155;-36
2021/07/20 06:22:27;;;;;;;13.32;8.80;;;26.80;67.10;;;;;;5016976;28;20025;-37
2021/07/20 06:24:55;;;;;;;11.40;7.93;;;26.80;67.70;;;;;;5016674;28;20029;-37
2021/07/20 06:27:22;;;;;;;14.68;9.05;;;26.80;67.70;;;;;;5016590;28;20037;-36
2021/07/20 06:29:54;;;;;;;17.45;9.20;;;26.90;67.20;;;;;;5016687;28;20026;-36
2021/07/20 06:32:22;;;;;;;11.45;8.35;;;26.90;66.90;;;;;;5016871;28;20096;-36
2021/07/20 06:34:49;;;;;;;13.05;8.85;;;26.90;67.10;;;;;;5016428;28;20092;-37
2021/07/20 06:37:16;;;;;;;12.95;7.88;;;27.00;67.00;;;;;;5017091;28;20037;-36
2021/07/20 06:39:42;;;;;;;18.63;8.98;;;27.00;67.20;;;;;;5016924;28;20168;-36
2021/07/20 06:42:08;;;;;;;16.00;9.10;;;27.00;66.80;;;;;;5016877;28;20022;-36
2021/07/20 06:44:35;;;;;;;14.63;8.82;;;27.00;66.80;;;;;;5016382;28;20026;-36
2021/07/20 06:47:03;;;;;;;17.25;8.75;;;27.10;67.10;;;;;;5016747;28;20464;-37
2021/07/20 06:49:29;;;;;;;12.43;7.50;;;27.10;66.90;;;;;;5016668;28;20041;-36
2021/07/20 06:51:55;;;;;;;16.00;7.50;;;27.10;66.90;;;;;;5016664;28;20093;-36
2021/07/20 06:54:21;;;;;;;12.90;8.63;;;27.10;66.50;;;;;;5016678;28;20073;-36
2021/07/20 06:56:55;;;;;;;10.10;7.75;;;27.20;66.90;;;;;;5016497;28;20440;-36
2021/07/20 06:59:27;;;;;;;14.25;8.93;;;27.20;66.80;;;;;;5016482;28;20044;-36
2021/07/20 07:01:54;;;;;;;15.05;9.18;;;27.30;66.50;;;;;;5016665;28;20341;-36
2021/07/20 07:04:41;;;;;;;12.40;9.00;;;27.30;66.80;;;;;;5016131;28;20411;-36
2021/07/20 07:07:08;;;;;;;11.40;8.00;;;27.30;66.80;;;;;;5016068;28;20052;-36
2021/07/20 07:09:33;;;;;;;13.30;7.75;;;27.40;66.60;;;;;;5016144;28;20397;-36
2021/07/20 07:11:59;;;;;;;11.73;7.18;;;27.40;65.70;;;;;;5016332;28;20050;-36
2021/07/20 07:14:25;;;;;;;14.70;8.73;;;27.40;66.10;;;;;;5015575;28;20033;-37
2021/07/20 07:16:53;;;;;;;13.75;9.10;;;27.50;65.30;;;;;;5015888;28;20426;-37
2021/07/20 07:19:20;;;;;;;12.48;7.70;;;27.50;65.00;;;;;;5016037;28;20485;-36
2021/07/20 07:21:48;;;;;;;12.73;7.47;;;27.50;65.60;;;;;;5016122;28;20040;-37
2021/07/20 07:24:15;;;;;;;10.80;7.40;;;27.50;65.40;;;;;;5015977;28;20111;-36
2021/07/20 07:26:42;;;;;;;11.35;7.90;;;27.50;65.40;;;;;;5015859;28;20120;-36
2021/07/20 07:29:14;;;;;;;14.70;7.32;;;27.60;65.10;;;;;;5016014;28;20099;-36
2021/07/20 07:31:42;;;;;;;12.82;7.65;;;27.60;65.30;;;;;;5015697;28;20048;-37
2021/07/20 07:34:10;;;;;;;12.77;7.95;;;27.70;65.20;;;;;;5015411;28;20061;-36
2021/07/20 07:36:37;;;;;;;13.93;8.95;;;27.70;65.00;;;;;;5015697;28;20109;-36
2021/07/20 07:39:05;;;;;;;16.88;7.60;;;27.70;64.00;;;;;;5015463;28;20034;-36
2021/07/20 07:41:34;;;;;;;15.32;7.95;;;27.80;65.00;;;;;;5012150;28;20310;-36
2021/07/20 07:44:01;;;;;;;15.52;8.55;;;27.80;64.90;;;;;;5015747;28;20103;-36
2021/07/20 07:46:31;;;;;;;16.20;8.35;;;27.90;64.40;;;;;;5015194;28;20314;-36
2021/07/20 07:48:58;;;;;;;14.30;7.72;;;28.00;64.00;;;;;;5015601;28;20113;-36
2021/07/20 07:51:25;;;;;;;9.20;6.97;;;28.00;64.20;;;;;;5014454;28;20041;-36
2021/07/20 07:53:53;;;;;;;12.35;7.18;;;28.10;63.90;;;;;;5015312;28;20041;-36
2021/07/20 07:56:19;;;;;;;22.08;11.70;;;28.10;63.40;;;;;;5015275;28;20030;-36
2021/07/20 07:58:45;;;;;;;11.82;7.75;;;28.20;62.80;;;;;;5014793;28;20053;-37
2021/07/20 08:01:13;;;;;;;13.45;7.70;;;28.20;62.40;;;;;;5014797;28;20382;-36
2021/07/20 08:03:42;;;;;;;12.68;8.27;;;28.20;62.80;;;;;;5015421;28;20403;-36
2021/07/20 08:06:09;;;;;;;11.35;8.00;;;28.30;62.70;;;;;;5014953;28;20026;-37
2021/07/20 08:08:37;;;;;;;11.70;7.97;;;28.30;62.70;;;;;;5015374;28;20088;-36
2021/07/20 08:11:10;;;;;;;12.00;8.80;;;28.40;62.90;;;;;;5014890;28;20421;-36
2021/07/20 08:13:38;;;;;;;13.45;9.57;;;28.40;62.50;;;;;;5015162;28;20129;-36
2021/07/20 08:16:06;;;;;;;15.57;9.63;;;28.50;62.50;;;;;;5014788;28;20088;-36
2021/07/20 08:18:32;;;;;;;12.75;7.90;;;28.60;62.60;;;;;;5019492;28;20034;-36
2021/07/20 08:21:03;;;;;;;12.15;7.28;;;28.60;61.10;;;;;;5019086;28;20034;-36
2021/07/20 08:23:33;;;;;;;11.30;7.13;;;28.70;61.10;;;;;;5018977;28;20122;-36
2021/07/20 08:26:05;;;;;;;;;;;28.80;60.70;;;;;;5019615;28;20101;-36
2021/07/20 08:28:41;;;;;;;11.13;7.22;;;28.80;61.30;;;;;;5018981;28;19952;-36
2021/07/20 08:31:08;;;;;;;13.35;7.60;;;28.90;61.60;;;;;;5018177;28;20038;-36
2021/07/20 08:33:36;;;;;;;14.07;7.72;;;29.00;61.00;;;;;;5018745;28;20144;-36
2021/07/20 08:36:06;;;;;;;11.63;6.38;;;29.10;61.10;;;;;;5018731;28;20029;-37
2021/07/20 08:38:35;;;;;;;12.65;7.38;;;29.10;60.30;;;;;;5018769;28;20125;-36
2021/07/20 08:41:04;;;;;;;12.02;7.05;;;29.20;61.40;;;;;;5018449;28;20038;-36
2021/07/20 08:43:41;;;;;;;13.10;7.43;;;29.30;60.40;;;;;;5018619;28;20056;-36
2021/07/20 08:46:26;;;;;;;9.18;6.32;;;29.30;60.20;;;;;;5018396;28;20105;-36
2021/07/20 08:49:35;;;;;;;14.27;8.43;;;29.40;59.30;;;;;;5018764;28;20045;-36
2021/07/20 08:52:10;;;;;;;9.73;6.93;;;29.50;59.30;;;;;;5018606;28;20369;-36
2021/07/20 08:55:00;;;;;;;12.40;7.15;;;29.50;58.80;;;;;;5017800;28;20030;-37
2021/07/20 08:57:58;;;;;;;13.70;6.95;;;29.60;58.20;;;;;;5018206;28;20034;-36
2021/07/20 09:00:36;;;;;;;9.65;6.43;;;29.60;57.30;;;;;;5014868;28;20430;-36
2021/07/20 09:03:32;;;;;;;8.82;6.32;;;29.70;57.40;;;;;;5018496;28;20113;-36
2021/07/20 09:06:22;;;;;;;10.18;6.40;;;29.70;57.00;;;;;;5018284;28;20022;-36
2021/07/20 09:09:00;;;;;;;8.00;6.05;;;29.80;58.00;;;;;;5018357;28;20109;-36
2021/07/20 09:12:03;;;;;;;12.43;6.88;;;29.90;58.00;;;;;;5018597;28;20032;-36
2021/07/20 09:14:35;;;;;;;12.65;6.25;;;29.90;57.50;;;;;;5017752;28;20096;-36
2021/07/20 09:17:04;;;;;;;12.18;6.53;;;30.00;56.10;;;;;;5018219;28;20049;-37
2021/07/20 09:19:52;;;;;;;11.52;6.63;;;30.00;56.60;;;;;;5017195;28;20068;-37
2021/07/20 09:22:22;;;;;;;10.38;6.55;;;30.10;56.90;;;;;;5017651;28;20049;-37
2021/07/20 09:24:55;;;;;;;16.50;7.43;;;30.10;57.00;;;;;;5015939;28;20022;-37
2021/07/20 09:27:35;;;;;;;14.35;6.47;;;30.10;56.70;;;;;;5018163;28;20048;-37
2021/07/20 09:30:05;;;;;;;8.30;6.10;;;30.20;56.50;;;;;;5016843;28;20025;-37
2021/07/20 09:32:43;;;;;;;10.40;6.03;;;30.20;55.90;;;;;;5018027;28;20037;-37
2021/07/20 09:35:25;;;;;;;9.70;6.72;;;30.30;56.30;;;;;;5017106;28;20046;-36
2021/07/20 09:38:16;;;;;;;12.30;6.50;;;30.30;56.60;;;;;;5017840;28;20072;-36
2021/07/20 09:41:03;;;;;;;13.13;6.32;;;30.40;56.20;;;;;;5017630;28;20042;-36
2021/07/20 09:44:00;;;;;;;7.68;5.45;;;30.40;56.10;;;;;;5017388;28;20069;-36
2021/07/20 09:46:35;;;;;;;10.73;6.00;;;30.40;56.00;;;;;;5017370;28;20034;-36
2021/07/20 09:49:31;;;;;;;9.18;5.47;;;30.40;55.90;;;;;;5017316;28;20025;-37
2021/07/20 09:52:30;;;;;;;10.10;5.50;;;30.40;55.80;;;;;;4994383;28;20033;-36
2021/07/20 09:55:34;;;;;;;8.95;5.80;;;30.40;55.30;;;;;;5016970;28;20033;-36
2021/07/20 09:58:16;;;;;;;8.70;5.57;;;30.50;55.10;;;;;;5017267;28;20022;-36
2021/07/20 10:01:07;;;;;;;6.85;5.22;;;30.50;53.90;;;;;;5016968;28;20355;-36
2021/07/20 10:04:11;;;;;;;10.75;5.50;;;30.50;53.90;;;;;;5016756;28;20034;-36
2021/07/20 10:06:52;;;;;;;20.85;6.07;;;30.50;53.80;;;;;;5013932;28;20142;-37
2021/07/20 10:09:35;;;;;;;7.82;5.13;;;30.50;53.20;;;;;;5016829;28;20111;-36
2021/07/20 10:12:20;;;;;;;8.70;6.18;;;30.60;54.30;;;;;;5017081;28;20033;-37
2021/07/20 10:15:04;;;;;;;10.93;6.22;;;30.60;54.30;;;;;;5016783;28;20038;-37
2021/07/20 10:18:11;;;;;;;9.05;6.15;;;30.60;53.60;;;;;;5017085;28;20048;-37
2021/07/20 10:20:45;;;;;;;7.22;5.78;;;30.60;54.20;;;;;;5016349;28;20064;-37
2021/07/20 10:23:20;;;;;;;11.75;5.75;;;30.70;53.30;;;;;;5016830;28;20030;-36
2021/07/20 10:26:00;;;;;;;11.05;7.28;;;30.70;53.70;;;;;;5016101;28;20426;-37
2021/07/20 10:28:36;;;;;;;9.32;6.35;;;30.80;53.70;;;;;;5016885;28;20037;-36
2021/07/20 10:31:11;;;;;;;7.05;5.50;;;30.80;54.00;;;;;;5016406;28;20096;-37
2021/07/20 10:34:01;;;;;;;9.00;5.63;;;30.90;54.60;;;;;;5016673;28;20133;-37
2021/07/20 10:36:49;;;;;;;10.00;5.80;;;30.90;54.30;;;;;;5016462;28;20438;-37
2021/07/20 10:39:19;;;;;;;8.90;6.55;;;31.00;54.50;;;;;;5015557;28;20128;-37
2021/07/20 10:42:06;;;;;;;9.63;6.28;;;31.00;53.90;;;;;;5017051;28;20359;-37
2021/07/20 10:44:36;;;;;;;9.15;6.75;;;31.10;53.40;;;;;;5016184;28;20065;-37
2021/07/20 10:47:05;;;;;;;8.93;6.18;;;31.10;53.50;;;;;;5016401;28;20100;-37
2021/07/20 10:49:50;;;;;;;8.63;5.68;;;31.10;53.50;;;;;;5015776;28;20446;-37
2021/07/20 10:52:34;;;;;;;9.13;6.22;;;31.20;54.00;;;;;;5005729;28;20029;-37
2021/07/20 10:55:41;;;;;;;10.10;6.15;;;31.20;54.70;;;;;;5015563;28;20124;-36
2021/07/20 10:58:21;;;;;;;11.30;7.32;;;31.30;54.10;;;;;;4955113;29;20043;-37
2021/07/20 11:01:22;;;;;;;9.35;6.28;;;31.30;53.90;;;;;;4954827;29;20027;-37
2021/07/20 11:03:56;;;;;;;7.90;6.18;;;31.40;53.80;;;;;;4992056;28;20049;-37
2021/07/20 11:06:23;;;;;;;8.57;6.50;;;31.50;53.60;;;;;;5016040;28;20026;-36
2021/07/20 11:08:53;;;;;;;19.67;6.40;;;31.60;52.60;;;;;;5016263;28;20030;-36
2021/07/20 11:11:21;;;;;;;;;;;31.70;52.60;;;;;;5016496;28;20057;-38
2021/07/20 11:13:51;;;;;;;8.18;6.00;;;31.70;53.30;;;;;;5016225;28;20248;-37
2021/07/20 11:16:20;;;;;;;9.15;5.97;;;31.80;52.60;;;;;;5015956;28;20029;-37
2021/07/20 11:18:48;;;;;;;8.23;6.05;;;31.90;52.90;;;;;;5016282;28;20422;-37
2021/07/20 11:21:17;;;;;;;11.90;6.38;;;32.00;53.00;;;;;;5015518;28;20054;-37
2021/07/20 11:23:45;;;;;;;14.70;6.30;;;32.10;52.40;;;;;;5016248;28;20034;-37
2021/07/20 11:26:12;;;;;;;8.90;6.78;;;32.20;52.30;;;;;;5015420;28;20026;-37
2021/07/20 11:28:44;;;;;;;8.70;5.80;;;32.30;52.50;;;;;;5015637;28;20026;-36
2021/07/20 11:31:20;;;;;;;9.63;6.85;;;32.30;52.10;;;;;;5015680;28;20113;-37
2021/07/20 11:33:52;;;;;;;8.48;6.10;;;32.30;52.10;;;;;;5015467;28;20085;-37
2021/07/20 11:36:22;;;;;;;15.52;7.18;;;32.30;51.90;;;;;;5015475;28;20042;-36
2021/07/20 11:38:53;;;;;;;9.55;6.32;;;32.40;51.10;;;;;;5015895;28;20114;-37
2021/07/20 11:41:57;;;;;;;10.85;6.57;;;32.40;51.20;;;;;;5015289;28;20418;-37
2021/07/20 11:44:28;;;;;;;11.32;6.68;;;32.50;51.70;;;;;;5014393;28;20049;-37
2021/07/20 11:46:59;;;;;;;8.48;6.35;;;32.60;51.30;;;;;;5014976;28;20049;-37
2021/07/20 11:50:00;;;;;;;11.80;5.40;;;32.60;51.00;;;;;;5015571;28;20049;-37
2021/07/20 11:52:50;;;;;;;8.52;5.75;;;32.80;51.30;;;;;;5015153;28;20034;-37
2021/07/20 11:55:42;;;;;;;10.60;5.85;;;32.90;51.00;;;;;;5015133;28;20257;-37
2021/07/20 11:58:28;;;;;;;7.72;5.80;;;33.10;50.80;;;;;;5007820;28;20113;-37
2021/07/20 12:01:22;;;;;;;9.73;6.18;;;33.10;50.60;;;;;;5015200;28;20030;-37
2021/07/20 12:04:04;;;;;;;7.70;5.25;;;33.10;49.90;;;;;;5014812;28;20041;-37
2021/07/20 12:06:42;;;;;;;12.20;6.47;;;33.10;50.30;;;;;;5015320;28;20022;-36
2021/07/20 12:09:19;;;;;;;11.70;7.05;;;33.00;49.90;;;;;;5012127;28;20022;-37
2021/07/20 12:11:48;;;;;;;9.20;5.82;;;33.00;50.20;;;;;;5015390;28;20026;-37
2021/07/20 12:14:15;;;;;;;11.95;5.63;;;33.00;49.50;;;;;;5015335;28;20030;-36
2021/07/20 12:16:43;;;;;;;11.10;5.70;;;33.00;50.10;;;;;;5015335;28;20081;-36
2021/07/20 12:19:09;;;;;;;9.55;6.10;;;33.00;50.30;;;;;;5015290;28;20033;-37
2021/07/20 12:21:37;;;;;;;7.93;5.80;;;33.10;50.30;;;;;;5015362;28;20101;-36
2021/07/20 12:24:09;;;;;;;8.93;6.28;;;33.30;50.00;;;;;;5014589;28;20037;-36
2021/07/20 12:26:37;;;;;;;6.90;5.88;;;33.30;49.50;;;;;;5015149;28;20028;-37
2021/07/20 12:29:07;;;;;;;12.30;6.47;;;33.40;49.30;;;;;;5014859;28;20367;-37
2021/07/20 12:31:33;;;;;;;9.70;6.13;;;33.50;48.40;;;;;;5015580;28;20088;-37
2021/07/20 12:33:59;;;;;;;9.25;6.10;;;33.50;48.70;;;;;;5014246;28;20050;-37
2021/07/20 12:36:26;;;;;;;8.82;5.55;;;33.50;49.10;;;;;;5014987;28;20029;-37
2021/07/20 12:39:12;;;;;;;10.18;6.28;;;33.60;49.00;;;;;;5014513;28;20617;-36
2021/07/20 12:41:50;;;;;;;11.27;6.43;;;33.70;48.80;;;;;;5015126;28;20030;-37
2021/07/20 12:44:17;;;;;;;8.00;6.03;;;33.70;48.30;;;;;;5014487;28;20034;-37
2021/07/20 12:46:43;;;;;;;7.70;5.90;;;33.80;48.60;;;;;;5015115;28;20377;-38
2021/07/20 12:49:13;;;;;;;12.95;6.25;;;34.00;48.40;;;;;;5014643;28;20109;-37
2021/07/20 12:51:53;;;;;;;11.30;6.30;;;34.20;47.90;;;;;;5015089;28;20026;-38
2021/07/20 12:54:35;;;;;;;10.27;5.70;;;34.50;46.70;;;;;;5014886;28;20589;-38
2021/07/20 12:57:02;;;;;;;7.05;5.70;;;34.80;47.30;;;;;;5015367;28;20432;-37
2021/07/20 12:59:28;;;;;;;11.02;5.45;;;35.00;46.60;;;;;;5014037;28;20030;-37
2021/07/20 13:01:56;;;;;;;12.02;6.35;;;35.20;46.80;;;;;;5015199;28;20069;-38
2021/07/20 13:04:22;;;;;;;9.07;6.00;;;35.40;46.00;;;;;;5016691;28;20049;-37